createdAt,value
2022-12-29T00:00:08.215Z,10.00
2022-12-29T00:02:41.367Z,10.00
2022-12-29T00:05:08.804Z,10.10
2022-12-29T00:07:35.632Z,10.00
2022-12-29T00:10:02.535Z,9.90
2022-12-29T00:12:49.130Z,9.80
2022-12-29T00:15:34.746Z,9.80
2022-12-29T00:18:01.450Z,9.80
2022-12-29T00:20:46.705Z,9.80
2022-12-29T00:23:32.828Z,9.90
2022-12-29T00:26:22.188Z,10.00
2022-12-29T00:29:09.332Z,10.00
2022-12-29T00:31:54.426Z,10.10
2022-12-29T00:34:39.765Z,10.10
2022-12-29T00:37:06.518Z,10.10
2022-12-29T00:39:52.868Z,10.20
2022-12-29T00:42:38.126Z,10.20
2022-12-29T00:45:05.606Z,10.20
2022-12-29T00:47:32.181Z,10.20
2022-12-29T00:49:58.973Z,10.20
2022-12-29T00:52:25.587Z,10.20
2022-12-29T00:54:52.213Z,10.30
2022-12-29T00:57:19.418Z,10.30
2022-12-29T00:59:46.226Z,10.30
2022-12-29T01:02:13.131Z,10.30
2022-12-29T01:04:39.942Z,10.30
2022-12-29T01:07:06.615Z,10.30
2022-12-29T01:09:52.525Z,10.30
2022-12-29T01:12:39.220Z,10.30
2022-12-29T01:15:07.224Z,10.20
2022-12-29T01:17:34.062Z,10.20
2022-12-29T01:20:01.796Z,10.30
2022-12-29T01:22:28.678Z,10.30
2022-12-29T01:24:56.377Z,10.30
2022-12-29T01:27:22.976Z,10.40
2022-12-29T01:29:49.608Z,10.40
2022-12-29T01:32:16.327Z,10.40
2022-12-29T01:34:45.188Z,10.40
2022-12-29T01:37:12.747Z,10.40
2022-12-29T01:39:39.637Z,10.40
2022-12-29T01:42:06.388Z,10.30
2022-12-29T01:44:55.956Z,9.90
2022-12-29T01:47:49.128Z,9.50
2022-12-29T01:50:27.149Z,9.10
2022-12-29T01:53:02.718Z,8.90
2022-12-29T01:55:33.713Z,8.80
2022-12-29T01:58:04.916Z,8.70
2022-12-29T02:00:31.600Z,8.70
2022-12-29T02:02:58.248Z,8.70
2022-12-29T02:05:32.869Z,8.70
2022-12-29T02:08:01.085Z,8.70
2022-12-29T02:10:30.871Z,8.70
2022-12-29T02:12:57.771Z,8.70
2022-12-29T02:15:49.135Z,8.80
2022-12-29T02:18:27.689Z,8.70
2022-12-29T02:21:15.409Z,8.70
2022-12-29T02:23:52.896Z,8.70
2022-12-29T02:26:47.181Z,8.70
2022-12-29T02:29:35.995Z,8.90
2022-12-29T02:32:16.861Z,9.40
2022-12-29T02:35:06.206Z,10.10
2022-12-29T02:38:15.265Z,10.60
2022-12-29T02:40:52.111Z,10.80
2022-12-29T02:43:39.269Z,10.90
2022-12-29T02:46:17.319Z,10.70
2022-12-29T02:48:59.978Z,10.60
2022-12-29T02:51:39.392Z,10.60
2022-12-29T02:54:25.357Z,10.70
2022-12-29T02:56:52.005Z,10.70
2022-12-29T02:59:19.122Z,10.80
2022-12-29T03:02:21.361Z,10.70
2022-12-29T03:04:59.241Z,10.80
2022-12-29T03:07:45.521Z,10.70
2022-12-29T03:10:29.488Z,10.70
2022-12-29T03:13:43.193Z,10.80
2022-12-29T03:16:33.079Z,10.80
2022-12-29T03:19:22.214Z,10.70
2022-12-29T03:22:21.169Z,10.80
2022-12-29T03:24:58.698Z,10.80
2022-12-29T03:27:42.655Z,10.90
2022-12-29T03:30:10.908Z,10.90
2022-12-29T03:32:43.744Z,10.90
2022-12-29T03:35:15.175Z,11.00
2022-12-29T03:37:50.355Z,11.00
2022-12-29T03:40:18.539Z,11.00
2022-12-29T03:42:47.554Z,11.00
2022-12-29T03:45:15.176Z,10.90
2022-12-29T03:47:41.832Z,10.90
2022-12-29T03:50:09.535Z,10.90
2022-12-29T03:52:40.457Z,10.90
2022-12-29T03:55:07.772Z,10.80
2022-12-29T03:57:34.417Z,10.90
2022-12-29T04:00:07.077Z,10.90
2022-12-29T04:02:42.039Z,11.00
2022-12-29T04:05:11.899Z,11.00
2022-12-29T04:07:38.689Z,10.90
2022-12-29T04:10:05.913Z,11.00
2022-12-29T04:12:34.648Z,11.00
2022-12-29T04:15:01.729Z,11.00
2022-12-29T04:17:28.588Z,11.00
2022-12-29T04:20:15.222Z,10.90
2022-12-29T04:22:41.865Z,11.00
2022-12-29T04:25:08.912Z,11.00
2022-12-29T04:27:35.615Z,11.00
2022-12-29T04:30:18.092Z,11.10
2022-12-29T04:32:59.508Z,11.00
2022-12-29T04:35:26.362Z,11.00
2022-12-29T04:37:53.048Z,10.90
2022-12-29T04:40:19.715Z,10.90
2022-12-29T04:42:46.384Z,10.90
2022-12-29T04:45:13.807Z,10.90
2022-12-29T04:47:52.255Z,10.90
2022-12-29T04:50:48.165Z,10.90
2022-12-29T04:53:18.841Z,10.90
2022-12-29T04:55:52.107Z,10.80
2022-12-29T04:58:22.875Z,10.80
2022-12-29T05:00:51.247Z,10.70
2022-12-29T05:03:18.930Z,10.70
2022-12-29T05:05:45.807Z,10.70
2022-12-29T05:08:12.569Z,10.80
2022-12-29T05:10:39.171Z,10.80
2022-12-29T05:13:11.400Z,10.80
2022-12-29T05:15:38.876Z,10.80
2022-12-29T05:18:05.729Z,10.80
2022-12-29T05:20:32.592Z,10.80
2022-12-29T05:22:59.282Z,10.80
2022-12-29T05:25:26.088Z,10.80
2022-12-29T05:28:00.042Z,10.80
2022-12-29T05:30:43.496Z,10.80
2022-12-29T05:33:12.396Z,10.90
2022-12-29T05:35:39.856Z,10.80
2022-12-29T05:38:06.612Z,10.80
2022-12-29T05:40:34.638Z,10.80
2022-12-29T05:43:05.698Z,10.70
2022-12-29T05:45:52.273Z,10.70
2022-12-29T05:48:38.252Z,10.60
2022-12-29T05:51:14.672Z,10.60
2022-12-29T05:53:49.752Z,10.60
2022-12-29T05:56:17.175Z,10.70
2022-12-29T05:58:45.628Z,10.70
2022-12-29T06:01:12.512Z,10.50
2022-12-29T06:03:44.509Z,10.50
2022-12-29T06:06:14.777Z,10.50
2022-12-29T06:08:41.456Z,10.60
2022-12-29T06:11:09.820Z,10.70
2022-12-29T06:13:36.537Z,10.80
2022-12-29T06:16:03.421Z,10.90
2022-12-29T06:18:31.021Z,11.00
2022-12-29T06:21:02.591Z,11.10
2022-12-29T06:23:30.000Z,11.10
2022-12-29T06:25:57.401Z,11.10
2022-12-29T06:28:24.648Z,11.20
2022-12-29T06:30:51.516Z,11.20
2022-12-29T06:33:19.055Z,11.20
2022-12-29T06:35:46.716Z,11.20
2022-12-29T06:38:14.868Z,11.30
2022-12-29T06:40:45.639Z,11.30
2022-12-29T06:43:31.527Z,11.30
2022-12-29T06:46:02.884Z,11.40
2022-12-29T06:48:29.531Z,11.30
2022-12-29T06:50:56.131Z,11.40
2022-12-29T06:53:23.800Z,11.30
2022-12-29T06:55:51.268Z,11.30
2022-12-29T06:58:17.997Z,11.40
2022-12-29T07:00:44.707Z,11.30
2022-12-29T07:03:11.773Z,11.20
2022-12-29T07:05:38.511Z,11.30
2022-12-29T07:08:05.799Z,11.30
2022-12-29T07:10:32.832Z,11.20
2022-12-29T07:12:59.492Z,11.20
2022-12-29T07:15:26.125Z,11.30
2022-12-29T07:17:52.938Z,11.20
2022-12-29T07:20:24.869Z,11.20
2022-12-29T07:22:53.559Z,11.20
2022-12-29T07:25:20.212Z,11.20
2022-12-29T07:27:46.828Z,11.20
2022-12-29T07:30:13.947Z,11.10
2022-12-29T07:32:40.619Z,11.10
2022-12-29T07:35:08.032Z,11.10
2022-12-29T07:37:35.366Z,11.10
2022-12-29T07:40:04.230Z,11.10
2022-12-29T07:42:32.676Z,11.10
2022-12-29T07:45:00.176Z,11.00
2022-12-29T07:47:33.600Z,11.00
2022-12-29T07:50:00.625Z,11.00
2022-12-29T07:52:27.528Z,11.00
2022-12-29T07:54:54.228Z,11.00
2022-12-29T07:57:23.026Z,11.00
2022-12-29T07:59:53.096Z,11.00
2022-12-29T08:02:19.873Z,10.90
2022-12-29T08:04:46.583Z,10.80
2022-12-29T08:07:13.295Z,10.70
2022-12-29T08:09:40.055Z,10.70
2022-12-29T08:12:06.882Z,10.60
2022-12-29T08:14:33.754Z,10.50
2022-12-29T08:17:00.386Z,10.40
2022-12-29T08:19:26.975Z,10.40
2022-12-29T08:21:54.330Z,10.30
2022-12-29T08:24:21.004Z,10.30
2022-12-29T08:26:47.669Z,10.30
2022-12-29T08:29:14.627Z,10.20
2022-12-29T08:31:41.305Z,10.10
2022-12-29T08:34:07.952Z,10.00
2022-12-29T08:36:34.644Z,10.00
2022-12-29T08:39:01.337Z,10.00
2022-12-29T08:41:27.942Z,10.10
2022-12-29T08:43:54.573Z,10.10
2022-12-29T08:46:21.311Z,10.00
2022-12-29T08:48:47.942Z,10.00
2022-12-29T08:51:15.163Z,10.00
2022-12-29T08:53:43.221Z,9.90
2022-12-29T08:56:10.987Z,9.80
2022-12-29T08:58:45.591Z,9.70
2022-12-29T09:01:12.345Z,9.70
2022-12-29T09:04:13.532Z,9.60
2022-12-29T09:06:25.659Z,9.60
2022-12-29T09:08:54.837Z,9.50
2022-12-29T09:11:24.259Z,9.60
2022-12-29T09:13:51.934Z,9.60
2022-12-29T09:16:19.058Z,9.60
2022-12-29T09:18:45.933Z,9.60
2022-12-29T09:21:13.905Z,9.60
2022-12-29T09:23:41.337Z,9.50
2022-12-29T09:26:08.865Z,9.60
2022-12-29T09:28:35.968Z,9.60
2022-12-29T09:31:03.427Z,9.70
2022-12-29T09:33:30.109Z,9.70
2022-12-29T09:35:59.181Z,9.70
2022-12-29T09:38:27.787Z,9.90
2022-12-29T09:41:16.303Z,9.80
2022-12-29T09:44:09.666Z,9.90
2022-12-29T09:46:41.408Z,9.90
2022-12-29T09:49:14.345Z,9.90
2022-12-29T09:51:46.764Z,9.90
2022-12-29T09:54:33.894Z,10.00
2022-12-29T09:57:00.589Z,10.00
2022-12-29T09:59:44.725Z,10.00
2022-12-29T10:02:32.803Z,10.10
2022-12-29T10:04:59.762Z,10.10
2022-12-29T10:07:37.430Z,10.10
2022-12-29T10:10:44.112Z,10.20
2022-12-29T10:13:26.935Z,10.30
2022-12-29T10:16:12.773Z,10.30
2022-12-29T10:19:04.621Z,10.30
2022-12-29T10:21:49.390Z,10.30
2022-12-29T10:24:17.596Z,10.20
2022-12-29T10:26:46.265Z,10.10
2022-12-29T10:29:16.868Z,10.10
2022-12-29T10:32:28.052Z,10.10
2022-12-29T10:34:59.506Z,10.10
2022-12-29T10:38:00.763Z,10.10
2022-12-29T10:40:36.942Z,10.00
2022-12-29T10:43:21.302Z,10.00
2022-12-29T10:45:49.415Z,10.00
2022-12-29T10:48:31.485Z,10.00
2022-12-29T10:51:02.529Z,9.90
2022-12-29T10:53:46.135Z,9.70
2022-12-29T10:56:40.138Z,9.40
2022-12-29T10:59:21.764Z,9.00
2022-12-29T11:02:10.087Z,8.90
2022-12-29T11:05:05.574Z,8.90
2022-12-29T11:07:32.726Z,9.00
2022-12-29T11:10:30.362Z,9.20
2022-12-29T11:13:12.491Z,9.30
2022-12-29T11:15:42.051Z,9.40
2022-12-29T11:18:21.279Z,9.30
2022-12-29T11:20:49.325Z,9.30
2022-12-29T11:23:33.460Z,9.40
2022-12-29T11:26:21.955Z,9.60
2022-12-29T11:29:04.959Z,9.80
2022-12-29T11:31:32.232Z,9.90
2022-12-29T11:33:59.001Z,10.00
2022-12-29T11:36:25.849Z,10.10
2022-12-29T11:38:54.960Z,10.20
2022-12-29T11:41:30.653Z,10.10
2022-12-29T11:44:03.291Z,10.20
2022-12-29T11:46:39.141Z,10.10
2022-12-29T11:49:06.409Z,10.10
2022-12-29T11:51:59.986Z,10.30
2022-12-29T11:54:28.503Z,10.20
2022-12-29T11:56:56.130Z,10.30
2022-12-29T11:59:30.701Z,10.30
2022-12-29T12:01:59.763Z,10.20
2022-12-29T12:04:32.157Z,10.10
2022-12-29T12:07:26.325Z,10.20
2022-12-29T12:10:04.853Z,10.10
2022-12-29T12:12:52.225Z,10.10
2022-12-29T12:15:21.690Z,10.10
2022-12-29T12:18:11.332Z,10.10
2022-12-29T12:21:27.339Z,10.10
2022-12-29T12:24:24.290Z,10.00
2022-12-29T12:27:12.571Z,10.00
2022-12-29T12:29:57.498Z,10.00
2022-12-29T12:32:53.309Z,10.00
2022-12-29T12:35:40.108Z,10.10
2022-12-29T12:38:44.494Z,10.00
2022-12-29T12:41:21.566Z,10.10
2022-12-29T12:44:01.351Z,10.10
2022-12-29T12:46:53.139Z,10.10
2022-12-29T12:49:52.221Z,10.00
2022-12-29T12:52:43.721Z,10.00
2022-12-29T12:55:48.120Z,10.00
2022-12-29T12:58:52.450Z,10.00
2022-12-29T13:01:25.791Z,10.00
2022-12-29T13:04:26.479Z,10.00
2022-12-29T13:07:28.311Z,9.90
2022-12-29T13:10:05.665Z,9.90
2022-12-29T13:13:03.891Z,10.00
2022-12-29T13:15:57.184Z,10.00
2022-12-29T13:18:54.041Z,9.90
2022-12-29T13:21:38.861Z,9.90
2022-12-29T13:24:21.809Z,10.00
2022-12-29T13:26:55.718Z,10.00
2022-12-29T13:29:56.008Z,10.00
2022-12-29T13:32:28.193Z,9.90
2022-12-29T13:35:20.883Z,9.90
2022-12-29T13:38:01.147Z,9.90
2022-12-29T13:40:34.951Z,9.90
2022-12-29T13:43:02.932Z,9.90
2022-12-29T13:45:33.453Z,9.80
2022-12-29T13:48:24.528Z,9.90
2022-12-29T13:50:58.561Z,9.90
2022-12-29T13:53:51.011Z,9.80
2022-12-29T13:56:42.380Z,9.70
2022-12-29T13:59:21.329Z,9.60
2022-12-29T14:02:04.970Z,9.40
2022-12-29T14:04:34.155Z,9.40
2022-12-29T14:07:05.443Z,9.40
2022-12-29T14:09:38.134Z,9.40
2022-12-29T14:12:26.476Z,9.40
2022-12-29T14:14:53.385Z,9.40
2022-12-29T14:17:21.970Z,9.40
2022-12-29T14:19:53.511Z,9.40
2022-12-29T14:22:32.986Z,9.50
2022-12-29T14:25:00.889Z,9.40
2022-12-29T14:27:30.820Z,9.30
2022-12-29T14:29:57.574Z,9.00
2022-12-29T14:32:27.221Z,8.80
2022-12-29T14:34:55.882Z,8.70
2022-12-29T14:37:31.443Z,8.70
2022-12-29T14:40:04.145Z,8.70
2022-12-29T14:42:32.011Z,8.80
2022-12-29T14:45:23.424Z,8.80
2022-12-29T14:47:54.540Z,8.80
2022-12-29T14:50:26.798Z,8.80
2022-12-29T14:53:03.462Z,8.90
2022-12-29T14:55:53.043Z,8.90
2022-12-29T14:58:33.284Z,8.90
2022-12-29T15:01:01.214Z,8.90
2022-12-29T15:03:33.464Z,8.90
2022-12-29T15:06:09.795Z,8.90
2022-12-29T15:08:59.585Z,8.80
2022-12-29T15:11:44.871Z,8.90
2022-12-29T15:14:31.899Z,8.90
2022-12-29T15:16:58.752Z,9.00
2022-12-29T15:19:27.292Z,9.00
2022-12-29T15:21:55.640Z,9.00
2022-12-29T15:24:22.744Z,9.00
2022-12-29T15:26:55.028Z,9.00
2022-12-29T15:29:45.463Z,9.00
2022-12-29T15:32:26.762Z,9.00
2022-12-29T15:34:57.019Z,9.10
2022-12-29T15:37:25.623Z,9.10
2022-12-29T15:39:55.233Z,9.10
2022-12-29T15:42:39.379Z,9.10
2022-12-29T15:45:11.426Z,9.10
2022-12-29T15:47:39.264Z,9.10
2022-12-29T15:50:28.877Z,9.10
2022-12-29T15:52:59.000Z,9.10
2022-12-29T15:55:36.977Z,9.20
2022-12-29T15:58:06.870Z,9.20
2022-12-29T16:00:38.002Z,9.20
2022-12-29T16:03:07.446Z,9.20
2022-12-29T16:05:39.727Z,9.20
2022-12-29T16:08:32.062Z,9.10
2022-12-29T16:10:59.209Z,9.10
2022-12-29T16:13:35.543Z,9.10
2022-12-29T16:16:20.402Z,9.20
2022-12-29T16:18:50.651Z,9.30
2022-12-29T16:21:34.795Z,9.30
2022-12-29T16:24:06.190Z,9.20
2022-12-29T16:26:33.106Z,9.30
2022-12-29T16:29:05.800Z,9.20
2022-12-29T16:31:48.702Z,9.20
2022-12-29T16:34:43.723Z,9.20
2022-12-29T16:37:25.432Z,9.10
2022-12-29T16:39:52.035Z,9.10
2022-12-29T16:42:50.562Z,9.20
2022-12-29T16:45:21.475Z,9.20
2022-12-29T16:48:09.793Z,9.10
2022-12-29T16:50:40.013Z,9.10
2022-12-29T16:53:17.209Z,9.10
2022-12-29T16:55:47.973Z,9.10
2022-12-29T16:58:22.685Z,9.10
2022-12-29T17:00:49.558Z,9.10
2022-12-29T17:03:17.028Z,9.10
2022-12-29T17:05:43.644Z,9.20
2022-12-29T17:08:23.648Z,9.20
2022-12-29T17:11:12.556Z,9.10
2022-12-29T17:13:39.728Z,9.10
2022-12-29T17:16:08.308Z,9.10
2022-12-29T17:18:35.427Z,9.10
2022-12-29T17:21:02.503Z,9.10
2022-12-29T17:23:31.844Z,9.00
2022-12-29T17:25:58.486Z,9.00
2022-12-29T17:28:29.124Z,9.00
2022-12-29T17:31:00.478Z,9.00
2022-12-29T17:33:30.791Z,9.00
2022-12-29T17:35:57.408Z,9.00
2022-12-29T17:38:32.056Z,9.00
2022-12-29T17:40:59.531Z,9.00
2022-12-29T17:43:31.465Z,9.00
2022-12-29T17:46:03.036Z,8.90
2022-12-29T17:48:29.645Z,8.90
2022-12-29T17:50:57.821Z,8.90
2022-12-29T17:53:27.644Z,8.90
2022-12-29T17:55:54.382Z,8.90
2022-12-29T17:58:21.993Z,8.80
2022-12-29T18:00:50.275Z,8.70
2022-12-29T18:03:20.769Z,8.80
2022-12-29T18:05:49.636Z,8.70
2022-12-29T18:08:16.542Z,8.70
2022-12-29T18:10:46.004Z,8.60
2022-12-29T18:13:25.430Z,8.60
2022-12-29T18:15:53.839Z,8.70
2022-12-29T18:18:26.715Z,8.60
2022-12-29T18:20:55.840Z,8.60
2022-12-29T18:23:25.105Z,8.70
2022-12-29T18:26:00.863Z,8.70
2022-12-29T18:28:28.376Z,8.70
2022-12-29T18:30:56.854Z,8.70
2022-12-29T18:33:26.382Z,8.70
2022-12-29T18:35:56.273Z,8.70
2022-12-29T18:38:23.134Z,8.70
2022-12-29T18:40:50.154Z,8.70
2022-12-29T18:43:18.127Z,8.80
2022-12-29T18:45:48.476Z,8.70
2022-12-29T18:48:16.949Z,8.80
2022-12-29T18:50:44.365Z,8.70
2022-12-29T18:53:32.686Z,8.70
2022-12-29T18:55:59.353Z,8.70
2022-12-29T18:58:33.752Z,8.70
2022-12-29T19:01:00.885Z,8.60
2022-12-29T19:03:27.599Z,8.60
2022-12-29T19:05:54.417Z,8.50
2022-12-29T19:08:21.038Z,8.50
2022-12-29T19:10:48.098Z,8.50
2022-12-29T19:13:18.026Z,8.50
2022-12-29T19:15:46.432Z,8.50
2022-12-29T19:21:10.755Z,8.40
2022-12-29T19:23:37.399Z,8.40
2022-12-29T19:26:04.080Z,8.40
2022-12-29T19:28:30.677Z,8.40
2022-12-29T19:31:02.222Z,8.20
2022-12-29T19:33:29.522Z,8.20
2022-12-29T19:36:02.076Z,8.10
2022-12-29T19:38:29.330Z,8.00
2022-12-29T19:40:56.224Z,8.00
2022-12-29T19:43:23.294Z,7.90
2022-12-29T19:45:51.268Z,7.90
2022-12-29T19:48:20.095Z,7.90
2022-12-29T19:50:47.328Z,7.80
2022-12-29T19:53:15.065Z,7.50
2022-12-29T19:55:46.332Z,7.20
2022-12-29T19:58:14.217Z,7.10
2022-12-29T20:00:42.734Z,6.90
2022-12-29T20:03:10.396Z,6.70
2022-12-29T20:05:37.931Z,6.60
2022-12-29T20:08:04.832Z,6.50
2022-12-29T20:10:31.530Z,6.50
2022-12-29T20:12:58.152Z,6.50
2022-12-29T20:15:25.009Z,6.40
2022-12-29T20:20:38.174Z,6.40
2022-12-29T20:23:04.756Z,6.40
2022-12-29T20:25:44.888Z,6.40
2022-12-29T20:28:12.905Z,6.30
2022-12-29T20:30:39.592Z,6.40
2022-12-29T20:33:08.515Z,6.40
2022-12-29T20:35:36.079Z,6.40
2022-12-29T20:38:02.744Z,6.40
2022-12-29T20:40:29.425Z,6.40
2022-12-29T20:42:56.130Z,6.40
2022-12-29T20:45:22.905Z,6.50
2022-12-29T20:47:49.551Z,6.50
2022-12-29T20:50:16.216Z,6.50
2022-12-29T20:52:42.994Z,6.60
2022-12-29T20:55:09.706Z,6.70
2022-12-29T20:58:13.648Z,6.80
2022-12-29T21:00:23.096Z,6.80
2022-12-29T21:02:50.156Z,6.80
2022-12-29T21:05:25.483Z,6.90
2022-12-29T21:07:53.831Z,6.90
2022-12-29T21:10:21.410Z,7.00
2022-12-29T21:12:48.664Z,7.00
2022-12-29T21:15:15.573Z,6.90
2022-12-29T21:17:43.377Z,6.90
2022-12-29T21:20:20.282Z,6.90
2022-12-29T21:22:47.919Z,6.90
2022-12-29T21:25:14.958Z,6.90
2022-12-29T21:27:44.896Z,6.90
2022-12-29T21:30:12.736Z,6.90
2022-12-29T21:32:40.413Z,6.90
2022-12-29T21:35:08.709Z,6.80
2022-12-29T21:37:36.179Z,6.90
2022-12-29T21:40:04.500Z,6.90
2022-12-29T21:42:31.498Z,6.90
2022-12-29T21:45:20.501Z,7.00
2022-12-29T21:48:06.596Z,6.90
2022-12-29T21:50:33.296Z,6.90
2022-12-29T21:53:00.033Z,6.90
2022-12-29T21:59:57.887Z,6.90
2022-12-29T22:02:47.235Z,6.80
2022-12-29T22:05:33.791Z,6.80
2022-12-29T22:08:23.760Z,6.80
2022-12-29T22:11:09.045Z,6.80
2022-12-29T22:13:38.102Z,6.80
2022-12-29T22:16:10.831Z,6.80
2022-12-29T22:18:38.050Z,6.80
2022-12-29T22:21:06.144Z,6.70
2022-12-29T22:23:32.853Z,6.80
2022-12-29T22:26:07.424Z,6.80
2022-12-29T22:28:38.545Z,6.80
2022-12-29T22:31:07.616Z,6.80
2022-12-29T22:33:34.245Z,6.70
2022-12-29T22:36:00.875Z,6.70
2022-12-29T22:38:27.479Z,6.60
2022-12-29T22:41:31.265Z,6.60
2022-12-29T22:43:57.933Z,6.60
2022-12-29T22:46:27.788Z,6.60
2022-12-29T22:48:56.782Z,6.60
2022-12-29T22:51:23.623Z,6.60
2022-12-29T22:54:18.101Z,6.60
2022-12-29T22:56:44.764Z,6.60
2022-12-29T22:59:12.491Z,6.60
2022-12-29T23:01:39.648Z,6.60
2022-12-29T23:04:57.190Z,6.60
2022-12-29T23:06:53.501Z,6.60
2022-12-29T23:09:21.995Z,6.60
2022-12-29T23:11:49.503Z,6.60
2022-12-29T23:14:17.253Z,6.70
2022-12-29T23:16:44.651Z,6.70
2022-12-29T23:19:12.516Z,6.70
2022-12-29T23:21:39.345Z,6.80
2022-12-29T23:24:07.281Z,6.80
2022-12-29T23:26:37.178Z,6.80
2022-12-29T23:29:06.302Z,6.80
2022-12-29T23:31:33.596Z,6.80
2022-12-29T23:34:01.881Z,6.70
2022-12-29T23:36:31.093Z,6.70
2022-12-29T23:38:57.986Z,6.70
2022-12-29T23:41:25.916Z,6.60
2022-12-29T23:43:52.612Z,6.60
2022-12-29T23:46:25.171Z,6.60
2022-12-29T23:48:55.141Z,6.50
2022-12-29T23:51:22.139Z,6.50
2022-12-29T23:53:48.878Z,6.50
2022-12-29T23:56:19.193Z,6.50
2022-12-29T23:58:46.271Z,6.50
